Time;durP1;ratioP1;P1;durP2;ratioP2;P2;SDS_P1;SDS_P2;PMS_P1;PMS_P2;Temp;Humidity;BMP_temperature;BMP_pressure;BME280_temperature;BME280_humidity;BME280_pressure;Samples;Min_cycle;Max_cycle;Signal;HPM_P1;HPM_P2
2022/12/01 00:01:22;;;;;;;82.03;31.35;;;4.90;99.90;;;;;;5098413;28;20432;-67
2022/12/01 00:03:50;;;;;;;91.20;30.55;;;4.90;99.90;;;;;;5080787;28;20024;-67
2022/12/01 00:06:19;;;;;;;85.03;31.75;;;4.90;99.90;;;;;;5101780;28;20024;-67
2022/12/01 00:11:36;;;;;;;97.57;31.85;;;4.80;99.90;;;;;;5098512;28;20022;-67
2022/12/01 00:14:04;;;;;;;95.40;33.83;;;4.80;99.90;;;;;;5098863;28;20070;-67
2022/12/01 00:16:32;;;;;;;89.70;32.28;;;4.80;99.90;;;;;;5097981;28;20012;-67
2022/12/01 00:19:00;;;;;;;81.97;31.92;;;4.80;99.90;;;;;;5097999;28;20020;-67
2022/12/01 00:21:27;;;;;;;90.97;33.15;;;4.80;99.90;;;;;;5098314;28;20016;-67
2022/12/01 00:23:56;;;;;;;92.47;34.15;;;4.80;99.90;;;;;;5098689;28;20510;-67
2022/12/01 00:26:25;;;;;;;97.00;35.55;;;4.80;99.90;;;;;;5098131;28;20031;-67
2022/12/01 00:28:55;;;;;;;93.30;34.95;;;4.80;99.90;;;;;;5098456;28;20020;-67
2022/12/01 00:31:23;;;;;;;94.65;34.75;;;4.80;99.90;;;;;;5097785;28;20075;-67
2022/12/01 00:33:50;;;;;;;103.45;36.55;;;4.80;99.90;;;;;;5097752;28;20040;-67
2022/12/01 00:36:17;;;;;;;103.95;36.95;;;4.80;99.90;;;;;;5097543;28;20407;-67
2022/12/01 00:38:45;;;;;;;97.75;34.60;;;4.80;99.90;;;;;;5098211;28;20039;-67
2022/12/01 00:41:13;;;;;;;95.70;36.75;;;4.70;99.90;;;;;;5097623;28;20054;-67
2022/12/01 00:43:40;;;;;;;99.15;37.00;;;4.70;99.90;;;;;;5098137;28;20028;-67
2022/12/01 00:46:07;;;;;;;101.57;35.53;;;4.70;99.90;;;;;;5097806;28;20059;-67
2022/12/01 00:48:34;;;;;;;108.72;37.88;;;4.70;99.90;;;;;;5079547;28;20032;-67
2022/12/01 00:51:02;;;;;;;97.10;35.33;;;4.70;99.90;;;;;;5097400;28;20070;-67
2022/12/01 00:53:29;;;;;;;104.20;34.88;;;4.70;99.90;;;;;;5097699;28;20052;-67
2022/12/01 00:55:56;;;;;;;111.25;37.72;;;4.70;99.90;;;;;;5079404;28;20024;-67
2022/12/01 00:58:24;;;;;;;90.13;35.83;;;4.70;99.90;;;;;;5097385;28;20324;-67
2022/12/01 01:00:59;;;;;;;107.65;35.35;;;4.70;99.90;;;;;;5097120;28;20054;-67
2022/12/01 01:03:28;;;;;;;105.68;36.88;;;4.70;99.90;;;;;;5097387;28;20069;-67
2022/12/01 01:05:55;;;;;;;100.68;35.30;;;4.70;99.90;;;;;;5079136;28;20024;-67
2022/12/01 01:08:23;;;;;;;109.15;33.80;;;4.70;99.90;;;;;;5097356;28;20047;-67
2022/12/01 01:10:50;;;;;;;118.80;38.47;;;4.70;99.90;;;;;;5097412;28;20048;-67
2022/12/01 01:13:18;;;;;;;111.43;34.42;;;4.60;99.90;;;;;;5097145;28;20059;-67
2022/12/01 01:15:56;;;;;;;103.18;34.35;;;4.60;99.90;;;;;;5079122;28;20032;-67
2022/12/01 01:18:24;;;;;;;118.60;36.50;;;4.60;99.90;;;;;;5097115;28;20046;-67
2022/12/01 01:21:00;;;;;;;99.05;34.67;;;4.60;99.90;;;;;;5097501;28;20031;-67
2022/12/01 01:23:28;;;;;;;114.03;38.50;;;4.60;99.90;;;;;;5097588;28;20077;-67
2022/12/01 01:26:06;;;;;;;111.03;36.40;;;4.60;99.90;;;;;;5096897;28;20016;-67
2022/12/01 01:28:33;;;;;;;119.88;37.45;;;4.60;99.90;;;;;;5097597;28;20081;-67
2022/12/01 01:31:06;;;;;;;114.18;37.15;;;4.60;99.90;;;;;;5096869;28;20021;-67
2022/12/01 01:33:33;;;;;;;113.18;37.10;;;4.60;99.90;;;;;;5097392;28;20055;-67
2022/12/01 01:36:01;;;;;;;114.72;36.97;;;4.60;99.90;;;;;;5097069;28;20008;-67
2022/12/01 01:38:29;;;;;;;105.70;36.47;;;4.60;99.90;;;;;;5097106;28;20409;-67
2022/12/01 01:40:56;;;;;;;101.10;35.45;;;4.60;99.90;;;;;;5097264;28;20016;-67
2022/12/01 01:43:44;;;;;;;110.47;39.13;;;4.60;99.90;;;;;;5097269;28;20020;-67
2022/12/01 01:46:18;;;;;;;101.43;34.17;;;4.60;99.90;;;;;;5078653;28;20332;-67
2022/12/01 01:49:07;;;;;;;102.38;36.72;;;4.60;99.90;;;;;;5098118;28;20069;-67
2022/12/01 01:51:48;;;;;;;102.13;36.03;;;4.60;99.90;;;;;;5096611;28;20047;-67
2022/12/01 01:54:35;;;;;;;107.63;35.78;;;4.60;99.90;;;;;;5097091;28;20342;-67
2022/12/01 01:57:07;;;;;;;104.93;36.47;;;4.60;99.90;;;;;;5078574;28;20446;-67
2022/12/01 01:59:47;;;;;;;112.10;35.13;;;4.60;99.90;;;;;;5096792;28;20093;-67
2022/12/01 02:02:15;;;;;;;99.38;35.38;;;4.60;99.90;;;;;;5096535;28;20024;-67
2022/12/01 02:04:48;;;;;;;104.30;33.25;;;4.60;99.90;;;;;;5096804;28;20020;-68
2022/12/01 02:07:17;;;;;;;105.18;34.35;;;4.60;99.90;;;;;;5096458;28;20031;-67
2022/12/01 02:09:45;;;;;;;99.13;33.97;;;4.60;99.90;;;;;;5078526;28;20093;-67
2022/12/01 02:12:36;;;;;;;101.43;35.85;;;4.60;99.90;;;;;;5096775;28;20020;-67
2022/12/01 02:15:20;;;;;;;99.28;34.17;;;4.60;99.90;;;;;;5078444;28;20328;-67
2022/12/01 02:18:14;;;;;;;102.00;35.22;;;4.60;99.90;;;;;;5096711;28;20024;-67
2022/12/01 02:21:04;;;;;;;88.15;31.60;;;4.60;99.90;;;;;;5096921;28;20016;-67
2022/12/01 02:23:41;;;;;;;95.13;33.47;;;4.60;99.90;;;;;;5096506;28;20017;-67
2022/12/01 02:26:38;;;;;;;97.65;31.75;;;4.60;99.90;;;;;;5096843;28;20027;-67
2022/12/01 02:29:38;;;;;;;93.78;34.10;;;4.60;99.90;;;;;;5096615;28;20104;-67
2022/12/01 02:32:39;;;;;;;89.22;32.00;;;4.60;99.90;;;;;;5084556;28;20032;-67
2022/12/01 02:35:42;;;;;;;81.65;30.40;;;4.60;99.90;;;;;;5096460;28;20424;-67
2022/12/01 02:38:25;;;;;;;84.10;34.00;;;4.60;99.90;;;;;;5095521;28;20458;-67
2022/12/01 02:41:19;;;;;;;85.20;32.90;;;4.60;99.90;;;;;;5096680;28;20061;-67
2022/12/01 02:44:26;;;;;;;87.30;31.05;;;4.60;99.90;;;;;;5096854;28;20368;-67
2022/12/01 02:47:02;;;;;;;78.35;30.83;;;4.60;99.90;;;;;;5096372;28;20028;-67
2022/12/01 02:49:46;;;;;;;83.72;31.73;;;4.50;99.90;;;;;;5078190;28;20028;-67
2022/12/01 02:52:15;;;;;;;80.32;32.47;;;4.50;99.90;;;;;;5078164;28;20050;-67
2022/12/01 02:54:45;;;;;;;75.53;29.27;;;4.50;99.90;;;;;;5096481;28;20024;-67
2022/12/01 02:57:14;;;;;;;74.57;29.55;;;4.50;99.90;;;;;;5097010;28;20102;-67
2022/12/01 02:59:47;;;;;;;72.32;29.85;;;4.50;99.90;;;;;;5078109;28;20040;-67
2022/12/01 03:02:40;;;;;;;77.38;32.42;;;4.50;99.90;;;;;;5079859;28;20020;-67
2022/12/01 03:05:23;;;;;;;79.47;29.25;;;4.50;99.90;;;;;;5079096;28;20048;-67
2022/12/01 03:08:13;;;;;;;70.72;27.83;;;4.50;99.90;;;;;;5078140;28;20035;-67
2022/12/01 03:10:57;;;;;;;75.82;31.13;;;4.50;99.90;;;;;;5079718;28;20136;-67
2022/12/01 03:13:46;;;;;;;79.72;30.27;;;4.50;99.90;;;;;;5079313;28;20027;-67
2022/12/01 03:16:37;;;;;;;79.00;30.38;;;4.50;99.90;;;;;;5079049;28;20028;-67
2022/12/01 03:19:40;;;;;;;73.72;30.60;;;4.40;99.90;;;;;;5079946;28;20028;-67
2022/12/01 03:22:15;;;;;;;69.13;28.98;;;4.40;99.90;;;;;;5079218;28;20017;-67
2022/12/01 03:24:46;;;;;;;72.70;29.35;;;4.40;99.90;;;;;;5078935;28;20115;-67
2022/12/01 03:27:18;;;;;;;76.88;29.67;;;4.40;99.90;;;;;;5078882;28;20025;-67
2022/12/01 03:29:49;;;;;;;72.45;29.58;;;4.40;99.90;;;;;;5079546;28;20384;-67
2022/12/01 03:32:25;;;;;;;71.38;31.17;;;4.40;99.90;;;;;;5077639;28;20175;-67
2022/12/01 03:35:07;;;;;;;77.47;31.48;;;4.40;99.90;;;;;;5078704;28;20100;-67
2022/12/01 03:37:52;;;;;;;70.85;28.58;;;4.40;99.90;;;;;;5078611;28;20418;-67
2022/12/01 03:40:28;;;;;;;73.82;30.33;;;4.40;99.90;;;;;;5079173;28;20104;-67
2022/12/01 03:43:06;;;;;;;71.47;28.92;;;4.40;99.90;;;;;;5078537;28;20127;-67
2022/12/01 03:45:47;;;;;;;70.38;29.30;;;4.30;99.90;;;;;;5079635;28;20345;-67
2022/12/01 03:48:15;;;;;;;69.90;28.77;;;4.30;99.90;;;;;;5079622;28;20032;-67
2022/12/01 03:51:05;;;;;;;78.18;29.65;;;4.30;99.90;;;;;;5078390;28;20364;-67
2022/12/01 03:54:07;;;;;;;70.07;28.55;;;4.30;99.90;;;;;;5078970;28;20020;-67
2022/12/01 03:56:45;;;;;;;68.85;29.42;;;4.30;99.90;;;;;;5077199;28;20024;-67
2022/12/01 03:59:15;;;;;;;69.22;30.42;;;4.20;99.90;;;;;;5079230;28;20020;-67
2022/12/01 04:01:44;;;;;;;68.53;29.25;;;4.30;99.90;;;;;;5099038;28;20048;-67
2022/12/01 04:04:13;;;;;;;70.03;29.10;;;4.20;99.90;;;;;;5098923;28;20024;-67
2022/12/01 04:06:46;;;;;;;70.85;31.65;;;4.20;99.90;;;;;;5098359;28;20016;-67
2022/12/01 04:09:13;;;;;;;73.35;31.00;;;4.20;99.90;;;;;;5079402;28;20024;-67
2022/12/01 04:14:26;;;;;;;72.63;31.25;;;4.20;99.90;;;;;;5098545;28;20089;-67
2022/12/01 04:16:53;;;;;;;85.05;32.97;;;4.20;99.90;;;;;;5098097;28;20024;-67
2022/12/01 04:19:21;;;;;;;77.90;29.70;;;4.20;99.90;;;;;;5098051;28;20024;-67
2022/12/01 04:21:48;;;;;;;75.03;30.05;;;4.20;99.90;;;;;;5098058;28;20020;-67
2022/12/01 04:24:16;;;;;;;70.75;30.70;;;4.20;99.90;;;;;;5097990;28;20027;-67
2022/12/01 04:26:44;;;;;;;82.28;33.10;;;4.20;99.90;;;;;;5098505;28;20012;-67
2022/12/01 04:29:12;;;;;;;75.93;31.17;;;4.10;99.90;;;;;;5097988;28;20020;-67
2022/12/01 04:31:39;;;;;;;74.90;30.95;;;4.10;99.90;;;;;;5080150;28;20035;-67
2022/12/01 04:34:08;;;;;;;78.90;32.05;;;4.10;99.90;;;;;;5097891;28;20317;-67
2022/12/01 04:36:36;;;;;;;72.97;29.17;;;4.10;99.90;;;;;;5097701;28;20034;-67
2022/12/01 04:39:04;;;;;;;71.03;30.63;;;4.10;99.90;;;;;;5098282;28;20024;-67
2022/12/01 04:41:32;;;;;;;81.28;31.05;;;4.10;99.90;;;;;;5098550;28;20304;-67
2022/12/01 04:43:59;;;;;;;78.85;33.00;;;4.10;99.90;;;;;;5079687;28;20103;-67
2022/12/01 04:46:26;;;;;;;82.18;32.63;;;4.10;99.90;;;;;;5098126;28;20016;-67
2022/12/01 04:48:53;;;;;;;90.65;34.83;;;4.00;99.90;;;;;;5097774;28;20047;-67
2022/12/01 04:51:21;;;;;;;86.07;33.20;;;4.00;99.90;;;;;;5097442;28;20023;-67
2022/12/01 04:53:50;;;;;;;79.45;32.80;;;4.00;99.90;;;;;;5079511;28;20016;-67
2022/12/01 04:56:18;;;;;;;75.80;31.33;;;4.00;99.90;;;;;;5079419;28;20462;-67
2022/12/01 04:58:46;;;;;;;78.38;31.77;;;4.00;99.90;;;;;;5097473;28;20028;-67
2022/12/01 05:01:15;;;;;;;75.53;30.25;;;4.00;99.90;;;;;;5097128;28;20054;-67
2022/12/01 05:03:45;;;;;;;75.75;30.98;;;3.90;99.90;;;;;;5079358;28;20024;-67
2022/12/01 05:06:22;;;;;;;77.85;31.58;;;3.90;99.90;;;;;;5097714;28;20016;-67
2022/12/01 05:08:50;;;;;;;77.03;29.90;;;3.90;99.90;;;;;;5097325;28;20073;-67
2022/12/01 05:11:19;;;;;;;75.78;31.92;;;3.90;99.90;;;;;;5097132;28;20020;-67
2022/12/01 05:13:47;;;;;;;73.22;30.50;;;3.90;99.90;;;;;;5097151;28;20024;-67
2022/12/01 05:16:17;;;;;;;72.43;29.52;;;3.90;99.90;;;;;;5097278;28;20031;-67
2022/12/01 05:18:49;;;;;;;74.03;30.38;;;3.80;99.90;;;;;;5097422;28;20111;-67
2022/12/01 05:21:17;;;;;;;68.57;28.33;;;3.80;99.90;;;;;;5096784;28;20030;-67
2022/12/01 05:23:44;;;;;;;73.55;31.48;;;3.80;99.90;;;;;;5079169;28;20023;-67
2022/12/01 05:26:11;;;;;;;71.45;30.42;;;3.80;99.90;;;;;;5097413;28;20016;-67
2022/12/01 05:28:39;;;;;;;78.85;30.90;;;3.70;99.90;;;;;;5079057;28;20428;-67
2022/12/01 05:31:07;;;;;;;83.65;30.88;;;3.70;99.90;;;;;;5096840;28;20032;-67
2022/12/01 05:33:34;;;;;;;75.57;30.63;;;3.70;99.90;;;;;;5097419;28;20439;-67
2022/12/01 05:36:01;;;;;;;69.93;30.05;;;3.70;99.90;;;;;;5097241;28;20027;-67
2022/12/01 05:38:28;;;;;;;72.20;28.75;;;3.70;99.90;;;;;;5097176;28;20030;-67
2022/12/01 05:40:56;;;;;;;79.10;31.88;;;3.70;99.90;;;;;;5097247;28;20035;-67
2022/12/01 05:43:24;;;;;;;87.95;32.92;;;3.60;99.90;;;;;;5078799;28;20424;-67
2022/12/01 05:45:54;;;;;;;79.60;32.00;;;3.60;99.90;;;;;;5096872;28;20020;-67
2022/12/01 05:48:21;;;;;;;77.05;30.98;;;3.60;99.90;;;;;;5096614;28;20030;-67
2022/12/01 05:50:49;;;;;;;79.53;33.17;;;3.60;99.90;;;;;;5096506;28;20016;-67
2022/12/01 05:53:17;;;;;;;78.22;32.33;;;3.60;99.90;;;;;;5097263;28;20027;-67
2022/12/01 05:55:45;;;;;;;80.75;31.75;;;3.60;99.90;;;;;;5096595;28;20032;-67
2022/12/01 05:58:12;;;;;;;90.68;32.28;;;3.60;99.90;;;;;;5096808;28;20070;-67
2022/12/01 06:00:41;;;;;;;81.97;33.35;;;3.50;99.90;;;;;;5096560;28;20113;-67
2022/12/01 06:03:09;;;;;;;83.35;32.25;;;3.50;99.90;;;;;;5096652;28;20024;-67
2022/12/01 06:05:37;;;;;;;81.68;31.35;;;3.50;99.90;;;;;;5096433;28;20436;-67
2022/12/01 06:08:04;;;;;;;83.07;32.60;;;3.50;99.90;;;;;;5096440;28;20376;-67
2022/12/01 06:10:31;;;;;;;82.47;32.80;;;3.40;99.90;;;;;;5096972;28;20024;-67
2022/12/01 06:12:59;;;;;;;83.07;33.15;;;3.40;99.90;;;;;;5096859;28;20289;-67
2022/12/01 06:15:26;;;;;;;94.57;33.10;;;3.40;99.90;;;;;;5096406;28;20024;-67
2022/12/01 06:17:54;;;;;;;83.30;30.85;;;3.40;99.90;;;;;;5096831;28;20070;-67
2022/12/01 06:20:22;;;;;;;81.25;30.48;;;3.40;99.90;;;;;;5096268;28;20016;-67
2022/12/01 06:22:49;;;;;;;78.38;30.65;;;3.40;99.90;;;;;;5096412;28;20029;-67
2022/12/01 06:25:17;;;;;;;87.32;31.80;;;3.30;99.90;;;;;;5096301;28;20091;-67
2022/12/01 06:27:44;;;;;;;85.20;30.80;;;3.30;99.90;;;;;;5096915;28;20039;-67
2022/12/01 06:30:12;;;;;;;82.53;31.08;;;3.30;99.90;;;;;;5096525;28;20027;-67
2022/12/01 06:32:39;;;;;;;83.05;29.70;;;3.30;99.90;;;;;;5097703;28;20031;-67
2022/12/01 06:35:07;;;;;;;81.65;30.90;;;3.30;99.90;;;;;;5100054;28;20099;-67
2022/12/01 06:37:34;;;;;;;88.25;30.73;;;3.30;99.90;;;;;;5100533;28;20020;-67
2022/12/01 06:40:03;;;;;;;80.57;30.85;;;3.20;99.90;;;;;;5100514;28;20065;-67
2022/12/01 06:42:31;;;;;;;92.53;32.42;;;3.20;99.90;;;;;;5100093;28;20020;-67
2022/12/01 06:44:58;;;;;;;91.20;31.58;;;3.20;99.90;;;;;;5100517;28;20023;-67
2022/12/01 06:47:26;;;;;;;84.82;33.95;;;3.10;99.90;;;;;;5081863;28;20085;-67
2022/12/01 06:49:53;;;;;;;91.05;31.83;;;3.10;99.90;;;;;;5100183;28;20023;-67
2022/12/01 06:52:20;;;;;;;88.13;31.67;;;3.10;99.90;;;;;;5100347;28;20027;-67
2022/12/01 06:54:48;;;;;;;90.00;30.33;;;3.10;99.90;;;;;;5081785;28;20055;-68
2022/12/01 06:57:15;;;;;;;93.78;31.67;;;3.10;99.90;;;;;;5081594;28;20378;-67
2022/12/01 06:59:42;;;;;;;81.38;27.80;;;3.10;99.90;;;;;;5099372;28;20090;-68
2022/12/01 07:02:13;;;;;;;84.28;30.55;;;3.10;99.90;;;;;;5099539;28;20020;-67
2022/12/01 07:04:41;;;;;;;87.63;30.77;;;3.00;99.90;;;;;;5099517;28;20039;-67
2022/12/01 07:07:11;;;;;;;81.38;28.50;;;3.00;99.90;;;;;;5099815;28;20090;-67
2022/12/01 07:09:39;;;;;;;90.80;32.45;;;3.00;99.90;;;;;;5099463;28;20016;-67
2022/12/01 07:12:06;;;;;;;88.97;31.67;;;3.00;99.90;;;;;;5099407;28;20412;-67
2022/12/01 07:14:34;;;;;;;86.03;31.95;;;3.00;99.90;;;;;;5099411;28;20031;-67
2022/12/01 07:17:02;;;;;;;84.38;29.77;;;2.90;99.90;;;;;;5099201;28;20099;-67
2022/12/01 07:19:29;;;;;;;90.25;29.95;;;2.90;99.90;;;;;;5100046;28;20324;-70
2022/12/01 07:21:57;;;;;;;83.85;28.73;;;2.90;99.90;;;;;;5099164;28;20020;-70
2022/12/01 07:24:24;;;;;;;81.40;29.02;;;2.90;99.90;;;;;;5081248;28;20056;-70
2022/12/01 07:26:51;;;;;;;90.60;29.48;;;2.90;99.90;;;;;;5080216;28;20024;-70
2022/12/01 07:29:18;;;;;;;90.75;30.55;;;2.90;99.90;;;;;;5099269;28;20099;-70
2022/12/01 07:31:45;;;;;;;80.03;29.30;;;2.90;99.90;;;;;;5081044;28;20024;-70
2022/12/01 07:34:13;;;;;;;84.93;29.27;;;2.90;99.90;;;;;;5099567;28;20016;-70
2022/12/01 07:36:40;;;;;;;101.53;30.63;;;2.90;99.90;;;;;;5099144;28;20031;-71
2022/12/01 07:39:08;;;;;;;101.85;33.90;;;2.90;99.90;;;;;;5081074;28;20017;-73
2022/12/01 07:41:36;;;;;;;91.70;30.67;;;2.90;99.90;;;;;;5099401;28;20377;-74
2022/12/01 07:44:04;;;;;;;104.30;33.13;;;2.90;99.90;;;;;;5099559;28;20030;-76
2022/12/01 07:46:31;;;;;;;106.40;32.08;;;2.90;99.90;;;;;;5098916;28;20026;-77
2022/12/01 07:48:59;;;;;;;92.97;29.83;;;2.90;99.90;;;;;;5080439;28;20016;-73
2022/12/01 07:51:26;;;;;;;93.75;31.98;;;2.90;99.90;;;;;;5080754;28;20338;-74
2022/12/01 07:53:54;;;;;;;109.20;34.30;;;2.90;99.90;;;;;;5080313;28;20301;-74
2022/12/01 07:56:22;;;;;;;99.50;33.38;;;2.90;99.90;;;;;;5081022;28;20408;-75
2022/12/01 07:58:50;;;;;;;99.57;32.65;;;2.90;99.90;;;;;;5080723;28;20028;-78
2022/12/01 08:01:20;;;;;;;92.35;30.88;;;3.00;99.90;;;;;;5098293;28;20032;-74
2022/12/01 08:03:57;;;;;;;93.60;29.52;;;3.00;99.90;;;;;;5098933;28;20412;-75
2022/12/01 08:06:26;;;;;;;99.75;31.92;;;3.00;99.90;;;;;;5080566;28;20270;-76
2022/12/01 08:08:56;;;;;;;86.20;29.38;;;3.00;99.90;;;;;;5098981;28;20021;-76
2022/12/01 08:11:25;;;;;;;81.40;27.05;;;3.00;99.90;;;;;;5098944;28;20076;-76
2022/12/01 08:13:53;;;;;;;88.05;29.75;;;3.00;99.90;;;;;;5098630;28;20020;-75
2022/12/01 08:16:25;;;;;;;87.72;28.88;;;3.10;99.90;;;;;;5098191;28;20324;-71
2022/12/01 08:18:52;;;;;;;83.75;26.40;;;3.10;99.90;;;;;;5099778;28;20020;-70
2022/12/01 08:21:22;;;;;;;86.07;30.15;;;3.10;99.90;;;;;;5098016;28;20053;-69
2022/12/01 08:23:54;;;;;;;74.93;27.58;;;3.10;99.90;;;;;;5098202;28;20016;-72
2022/12/01 08:26:22;;;;;;;72.88;25.00;;;3.10;99.90;;;;;;5098443;28;20039;-72
2022/12/01 08:28:50;;;;;;;69.00;25.77;;;3.10;99.90;;;;;;5098014;28;20153;-71
2022/12/01 08:31:24;;;;;;;77.03;28.60;;;3.20;99.90;;;;;;5098536;28;20409;-71
2022/12/01 08:33:52;;;;;;;69.60;26.08;;;3.20;99.90;;;;;;5080954;28;20076;-69
2022/12/01 08:36:20;;;;;;;73.60;27.27;;;3.20;99.90;;;;;;5097756;28;20023;-70
2022/12/01 08:38:49;;;;;;;73.93;26.65;;;3.30;99.90;;;;;;5079918;28;20031;-77
2022/12/01 08:41:18;;;;;;;78.05;26.42;;;3.30;99.90;;;;;;5098183;28;20031;-75
2022/12/01 08:43:45;;;;;;;66.63;27.42;;;3.30;99.90;;;;;;5080038;28;20050;-75
2022/12/01 08:46:14;;;;;;;70.55;24.38;;;3.40;99.90;;;;;;5079738;28;20020;-74
2022/12/01 08:48:42;;;;;;;73.25;27.65;;;3.40;99.90;;;;;;5097681;28;20024;-75
2022/12/01 08:51:19;;;;;;;80.78;31.73;;;3.40;99.90;;;;;;5097556;28;20028;-71
2022/12/01 08:53:49;;;;;;;75.78;28.90;;;3.50;99.90;;;;;;5097797;28;20111;-71
2022/12/01 08:56:20;;;;;;;67.50;24.73;;;3.50;99.90;;;;;;5096844;28;20106;-72
2022/12/01 08:58:47;;;;;;;62.80;23.88;;;3.50;99.90;;;;;;5097405;28;20024;-72
2022/12/01 09:01:15;;;;;;;59.95;25.30;;;3.60;99.90;;;;;;5097154;28;20044;-73
2022/12/01 09:03:43;;;;;;;60.28;26.00;;;3.50;99.90;;;;;;5097462;28;20413;-71
2022/12/01 09:06:19;;;;;;;63.88;25.73;;;3.50;99.90;;;;;;5097207;28;20031;-70
2022/12/01 09:08:46;;;;;;;73.40;26.13;;;3.60;99.90;;;;;;5097297;28;20031;-70
2022/12/01 09:11:16;;;;;;;58.38;22.63;;;3.60;99.90;;;;;;5097474;28;20032;-73
2022/12/01 09:13:44;;;;;;;52.17;21.30;;;3.60;99.90;;;;;;5097374;28;20028;-71
2022/12/01 09:16:14;;;;;;;57.33;22.98;;;3.60;99.90;;;;;;5097140;28;20069;-69
2022/12/01 09:18:42;;;;;;;65.10;23.80;;;3.60;99.90;;;;;;5096999;28;20024;-70
2022/12/01 09:21:16;;;;;;;62.05;23.10;;;3.60;99.90;;;;;;5097430;28;20077;-71
2022/12/01 09:23:44;;;;;;;57.03;21.13;;;3.70;99.90;;;;;;5096956;28;20316;-69
2022/12/01 09:26:16;;;;;;;54.63;22.92;;;3.70;99.90;;;;;;5096934;28;20012;-74
2022/12/01 09:28:47;;;;;;;57.50;22.05;;;3.70;99.90;;;;;;5096948;28;20417;-71
2022/12/01 09:31:17;;;;;;;58.97;21.13;;;3.70;99.90;;;;;;5096985;28;20416;-71
2022/12/01 09:33:45;;;;;;;61.90;23.17;;;3.70;99.90;;;;;;5096696;28;20301;-71
2022/12/01 09:36:12;;;;;;;58.03;22.33;;;3.70;99.90;;;;;;5096610;28;20024;-74
2022/12/01 09:38:40;;;;;;;59.03;23.17;;;3.70;99.90;;;;;;5096697;28;20035;-74
2022/12/01 09:41:26;;;;;;;58.10;23.83;;;3.70;99.90;;;;;;5096574;28;20023;-72
2022/12/01 09:44:00;;;;;;;67.10;24.88;;;3.70;99.90;;;;;;5096627;28;20421;-78
2022/12/01 09:46:36;;;;;;;57.28;23.60;;;3.70;99.90;;;;;;5096768;28;20413;-70
2022/12/01 09:49:05;;;;;;;60.47;24.25;;;3.70;99.90;;;;;;5096607;28;20320;-70
2022/12/01 09:51:35;;;;;;;58.92;22.52;;;3.70;99.90;;;;;;5097043;28;20051;-70
2022/12/01 09:54:06;;;;;;;59.28;23.70;;;3.70;99.90;;;;;;5096444;28;20126;-70
2022/12/01 09:56:44;;;;;;;64.70;23.67;;;3.70;99.90;;;;;;5096997;28;20314;-70
2022/12/01 09:59:24;;;;;;;61.67;23.27;;;3.60;99.90;;;;;;5096471;28;20024;-71
2022/12/01 10:02:03;;;;;;;64.47;24.17;;;3.60;99.90;;;;;;5096700;28;20035;-72
2022/12/01 10:04:37;;;;;;;64.53;24.38;;;3.60;99.90;;;;;;5096553;28;20098;-74
2022/12/01 10:07:20;;;;;;;58.83;22.95;;;3.60;99.90;;;;;;5080856;28;20020;-71
2022/12/01 10:10:06;;;;;;;61.83;22.58;;;3.60;99.90;;;;;;5100485;28;20028;-71
2022/12/01 10:12:35;;;;;;;63.95;22.70;;;3.60;99.90;;;;;;5100876;28;20062;-71
2022/12/01 10:15:24;;;;;;;59.55;23.58;;;3.60;99.90;;;;;;5100667;28;20030;-70
2022/12/01 10:18:06;;;;;;;62.83;23.45;;;3.60;99.90;;;;;;5100989;28;20016;-74
2022/12/01 10:20:46;;;;;;;65.68;24.92;;;3.60;99.90;;;;;;5100280;28;20027;-72
2022/12/01 10:23:35;;;;;;;56.47;22.63;;;3.60;99.90;;;;;;5100735;28;20070;-71
2022/12/01 10:26:32;;;;;;;65.00;22.42;;;3.60;99.90;;;;;;5100335;28;20025;-72
2022/12/01 10:29:05;;;;;;;63.10;23.75;;;3.60;99.90;;;;;;5082519;28;20028;-75
2022/12/01 10:31:52;;;;;;;66.25;24.40;;;3.60;99.90;;;;;;5100775;28;20407;-70
2022/12/01 10:34:30;;;;;;;59.97;22.05;;;3.60;99.90;;;;;;5100401;28;20078;-75
2022/12/01 10:36:58;;;;;;;65.25;24.10;;;3.70;99.90;;;;;;5100052;28;20106;-75
2022/12/01 10:39:36;;;;;;;69.35;23.67;;;3.70;99.90;;;;;;5100067;28;20177;-75
2022/12/01 10:42:16;;;;;;;67.90;24.25;;;3.70;99.90;;;;;;5100359;28;20346;-75
2022/12/01 10:44:44;;;;;;;63.95;23.85;;;3.70;99.90;;;;;;5082008;28;20047;-71
2022/12/01 10:47:23;;;;;;;69.70;25.60;;;3.70;99.90;;;;;;5099849;28;20032;-71
2022/12/01 10:49:51;;;;;;;65.15;26.52;;;3.70;99.90;;;;;;5100173;28;20309;-71
2022/12/01 10:52:38;;;;;;;72.13;27.08;;;3.60;99.90;;;;;;5099988;28;20027;-73
2022/12/01 10:55:34;;;;;;;63.33;25.83;;;3.60;99.90;;;;;;5099641;28;20158;-72
2022/12/01 10:58:14;;;;;;;65.03;24.67;;;3.60;99.90;;;;;;5094344;28;20463;-74
2022/12/01 11:00:43;;;;;;;58.35;23.52;;;3.60;99.90;;;;;;5099909;28;20044;-72
2022/12/01 11:03:24;;;;;;;74.30;26.58;;;3.60;99.90;;;;;;5099863;28;20020;-72
2022/12/01 11:05:58;;;;;;;65.97;25.92;;;3.60;99.90;;;;;;5099554;28;20072;-72
2022/12/01 11:08:40;;;;;;;66.30;25.25;;;3.70;99.90;;;;;;5081678;28;20443;-72
2022/12/01 11:11:25;;;;;;;67.90;23.67;;;3.70;99.90;;;;;;5099763;28;20024;-72
2022/12/01 11:13:54;;;;;;;62.92;23.40;;;3.70;99.90;;;;;;5099967;28;20028;-72
2022/12/01 11:16:41;;;;;;;62.33;23.60;;;3.70;99.90;;;;;;5099977;28;20031;-72
2022/12/01 11:19:27;;;;;;;63.50;23.55;;;3.70;99.90;;;;;;5098938;28;20088;-72
2022/12/01 11:22:01;;;;;;;61.33;23.95;;;3.70;99.90;;;;;;5081392;28;20065;-77
2022/12/01 11:24:53;;;;;;;65.28;23.95;;;3.70;99.90;;;;;;5081261;28;20115;-73
2022/12/01 11:27:23;;;;;;;63.20;24.58;;;3.70;99.90;;;;;;5091015;28;20036;-69
2022/12/01 11:30:05;;;;;;;78.10;28.00;;;3.70;99.90;;;;;;5099130;28;20020;-71
2022/12/01 11:32:36;;;;;;;67.07;24.13;;;3.70;99.90;;;;;;5081286;28;20080;-71
2022/12/01 11:35:25;;;;;;;61.33;23.75;;;3.70;99.90;;;;;;5099311;28;20024;-72
2022/12/01 11:37:54;;;;;;;70.03;27.13;;;3.70;99.90;;;;;;5099529;28;20024;-71
2022/12/01 11:40:27;;;;;;;78.60;27.77;;;3.70;99.90;;;;;;5080985;28;20017;-82
2022/12/01 11:43:01;;;;;;;79.80;31.58;;;3.70;99.90;;;;;;5099080;28;20063;-75
2022/12/01 11:45:35;;;;;;;63.30;24.33;;;3.70;99.90;;;;;;5099152;28;20435;-75
2022/12/01 11:48:09;;;;;;;82.85;27.88;;;3.70;99.90;;;;;;5098833;28;20032;-74
2022/12/01 11:50:39;;;;;;;62.47;24.20;;;3.70;99.90;;;;;;5099244;28;20028;-73
2022/12/01 11:53:40;;;;;;;60.95;22.75;;;3.70;99.90;;;;;;5080934;28;20118;-73
2022/12/01 11:56:29;;;;;;;63.60;21.83;;;3.70;99.90;;;;;;5073346;28;20111;-77
2022/12/01 11:59:11;;;;;;;61.22;22.52;;;3.80;99.90;;;;;;5080514;28;20020;-76
2022/12/01 12:02:00;;;;;;;60.00;22.80;;;3.80;99.90;;;;;;5097959;28;20047;-73
2022/12/01 12:04:36;;;;;;;58.85;21.65;;;3.80;99.90;;;;;;5098712;28;20024;-74
2022/12/01 12:07:20;;;;;;;57.72;23.98;;;3.80;99.90;;;;;;5099170;28;20028;-74
2022/12/01 12:09:59;;;;;;;69.22;23.67;;;3.80;99.90;;;;;;5080405;28;20074;-73
2022/12/01 12:12:33;;;;;;;63.15;21.77;;;3.80;99.90;;;;;;5098785;28;20069;-74
2022/12/01 12:15:15;;;;;;;56.05;21.33;;;3.80;99.90;;;;;;5098468;28;20316;-72
2022/12/01 12:18:00;;;;;;;62.88;23.17;;;3.80;99.90;;;;;;5097258;28;20107;-78
2022/12/01 12:20:39;;;;;;;59.70;21.90;;;3.80;99.90;;;;;;5079264;28;20085;-75
2022/12/01 12:23:37;;;;;;;60.00;22.85;;;3.80;99.90;;;;;;5098401;28;20024;-72
2022/12/01 12:26:03;;;;;;;;;;;3.80;99.90;;;;;;5099002;28;20028;-79
2022/12/01 12:28:56;;;;;;;59.90;22.02;;;3.90;99.90;;;;;;5098781;28;19908;-73
2022/12/01 12:31:50;;;;;;;52.47;21.65;;;3.80;99.90;;;;;;5097524;28;20412;-73
2022/12/01 12:34:48;;;;;;;61.38;23.17;;;3.80;99.90;;;;;;5097894;28;20028;-78
2022/12/01 12:37:38;;;;;;;67.10;24.90;;;3.80;99.90;;;;;;5080155;28;20098;-74
2022/12/01 12:40:31;;;;;;;62.17;21.67;;;3.80;99.90;;;;;;5098096;28;20031;-78
2022/12/01 12:43:23;;;;;;;59.78;20.75;;;3.80;99.90;;;;;;5098059;28;20038;-70
2022/12/01 12:46:06;;;;;;;61.05;21.15;;;3.70;99.90;;;;;;5097680;28;20024;-71
2022/12/01 12:49:00;;;;;;;64.30;23.27;;;3.70;99.90;;;;;;5097796;28;20031;-71
2022/12/01 12:51:49;;;;;;;61.80;22.88;;;3.70;99.90;;;;;;5098132;28;20017;-68
2022/12/01 12:54:32;;;;;;;63.88;20.70;;;3.70;99.90;;;;;;5097484;28;20034;-68
2022/12/01 12:57:23;;;;;;;53.72;20.92;;;3.70;99.90;;;;;;5079563;28;20067;-73
2022/12/01 13:00:02;;;;;;;55.33;20.05;;;3.70;99.90;;;;;;5075817;28;20326;-69
2022/12/01 13:03:14;;;;;;;61.78;22.75;;;3.70;99.90;;;;;;5077048;28;20477;-68
2022/12/01 13:05:48;;;;;;;56.88;20.80;;;3.70;99.90;;;;;;5076862;28;20021;-67
2022/12/01 13:08:29;;;;;;;53.25;20.13;;;3.70;99.90;;;;;;5076975;28;20028;-67
2022/12/01 13:11:37;;;;;;;67.25;22.67;;;3.80;99.90;;;;;;5076958;28;20027;-67
2022/12/01 13:14:18;;;;;;;53.35;19.73;;;3.80;99.90;;;;;;5056713;28;20040;-67
2022/12/01 13:16:51;;;;;;;53.70;21.27;;;3.80;99.90;;;;;;5075817;28;20027;-67